Hatsu Ethic — VQFS4 — position and weather

sailwx.info

Track history (hours):
 
Tides and Currents Weather Stations Pressure Air Temp Water Temp Dewpoint Dewpoint Depression Visibility Wind Speed Wind Dir Waves Ship Positions

Hatsu Ethic

Last reported at 2015-May-29 05:18 UTC. Time now 2015-May-29 06:23 UTC.
Position N 35°37' E 139°47'.

Type: Ship (hazmat cat D). MMSI: 235603000.

Date/timePositionNaut miles runAvg speedWind from/ knotsBaromVisibWave heightAir tempDewpointWater temp
2015-May-29 05:18N 35°37' E 139°47'0 0.1
2015-May-29 04:30N 35°37' E 139°47'0 0.0
2015-May-29 03:33N 35°37' E 139°47'0 0.0
2015-May-29 02:33N 35°37' E 139°47'0 0.5
2015-May-29 01:33N 35°36' E 139°47'8 8.4
2015-May-29 00:33N 35°29' E 139°52'1212.4
2015-May-28 23:33N 35°17' E 139°45'1010.4
2015-May-28 22:33N 35°07' E 139°46'9 9.3
2015-May-28 21:34N 34°59' E 139°41'1210.4
2015-May-28 20:22N 34°50' E 139°51'1113.8
2015-May-28 19:33N 34°50' E 140°04'2216.7
2015-May-28 18:14N 34°53' E 140°31'1514.4
2015-May-28 17:10N 35°08' E 140°36'1317.2
2015-May-28 16:26N 35°16' E 140°48'1516.8
2015-May-28 15:32N 35°27' E 141°01'3115.3
2015-May-28 13:32N 35°48' E 141°28'1614.3
2015-May-28 12:23N 36°01' E 141°41'1414.0
2015-May-28 11:21N 36°12' E 141°52'1113.8
2015-May-28 10:32N 36°21' E 142°01'2116.1
2015-May-28 09:15N 36°37' E 142°18'  
2015-May-25 18:00N 51°00' W 158°42'1437119.7 190 / 18988.0 5.4 1.0 6.5 6.0 2.0
2015-May-25 06:00N 53°54' E 162°18'72617.3 160 / 18988.0 5.4 1.0 6.5 6.0 2.0
2015-May-23 12:00N 57°06' W 177°06'41717.4 940 / 181002.010.8 1.0 5.0
2015-May-22 12:00N 54°48' W 165°24'21718.1 940 / 171002.8 5.411.012.1 8.4
2015-May-22 00:00N 53°54' W 159°24'   790 / 171132.110.811.012.1 4.4
Track history (hours):
 
Tides and Currents Weather Stations Pressure Air Temp Water Temp Dewpoint Dewpoint Depression Visibility Wind Speed Wind Dir Waves Ship Positions

Hatsu Ethic

Last reported at 2015-May-29 05:18 UTC. Time now 2015-May-29 06:23 UTC.
Position N 35°37' E 139°47'.

Type: Ship (hazmat cat D). MMSI: 235603000.

Date/timePositionNaut miles runAvg speedWind from/ knotsBaromVisibWave heightAir tempDewpointWater temp
2015-May-29 05:18N 35°37' E 139°47'0 0.1
2015-May-29 04:30N 35°37' E 139°47'0 0.0
2015-May-29 03:33N 35°37' E 139°47'0 0.0
2015-May-29 02:33N 35°37' E 139°47'0 0.5
2015-May-29 01:33N 35°36' E 139°47'8 8.4
2015-May-29 00:33N 35°29' E 139°52'1212.4
2015-May-28 23:33N 35°17' E 139°45'1010.4
2015-May-28 22:33N 35°07' E 139°46'9 9.3
2015-May-28 21:34N 34°59' E 139°41'1210.4
2015-May-28 20:22N 34°50' E 139°51'1113.8
2015-May-28 19:33N 34°50' E 140°04'2216.7
2015-May-28 18:14N 34°53' E 140°31'1514.4
2015-May-28 17:10N 35°08' E 140°36'1317.2
2015-May-28 16:26N 35°16' E 140°48'1516.8
2015-May-28 15:32N 35°27' E 141°01'3115.3
2015-May-28 13:32N 35°48' E 141°28'1614.3
2015-May-28 12:23N 36°01' E 141°41'1414.0
2015-May-28 11:21N 36°12' E 141°52'1113.8
2015-May-28 10:32N 36°21' E 142°01'2116.1
2015-May-28 09:15N 36°37' E 142°18'  
2015-May-25 18:00N 51°00' W 158°42'1437119.7 190 / 18988.0 5.4 1.0 6.5 6.0 2.0
2015-May-25 06:00N 53°54' E 162°18'72617.3 160 / 18988.0 5.4 1.0 6.5 6.0 2.0
2015-May-23 12:00N 57°06' W 177°06'41717.4 940 / 181002.010.8 1.0 5.0
2015-May-22 12:00N 54°48' W 165°24'21718.1 940 / 171002.8 5.411.012.1 8.4
2015-May-22 00:00N 53°54' W 159°24'   790 / 171132.110.811.012.1 4.4

Dump ship's entire track history